Time;durP1;ratioP1;P1;durP2;ratioP2;P2;SDS_P1;SDS_P2;PMS_P1;PMS_P2;Temp;Humidity;BMP_temperature;BMP_pressure;BME280_temperature;BME280_humidity;BME280_pressure;Samples;Min_cycle;Max_cycle;Signal;HPM_P1;HPM_P2
2023/01/29 00:01:13;;;;;;;38.85;19.70;;;;;;;0.98;100.00;101246.84;4957391;29;20445;-87
2023/01/29 00:03:40;;;;;;;43.97;19.80;;;;;;;1.23;100.00;101243.72;4939127;29;20071;-87
2023/01/29 00:06:07;;;;;;;39.67;18.73;;;;;;;1.17;100.00;101254.50;4940688;29;20470;-87
2023/01/29 00:08:34;;;;;;;39.30;19.35;;;;;;;1.01;100.00;101250.13;4940470;29;20047;-86
2023/01/29 00:11:09;;;;;;;43.90;20.65;;;;;;;0.94;100.00;101253.16;4938138;29;20035;-88
2023/01/29 00:13:35;;;;;;;40.60;17.77;;;;;;;1.14;100.00;101245.06;4936677;29;20048;-87
2023/01/29 00:16:01;;;;;;;41.08;18.55;;;;;;;1.06;100.00;101247.28;4938333;29;20046;-86
2023/01/29 00:18:28;;;;;;;42.33;19.60;;;;;;;0.95;100.00;101252.22;4937831;29;20039;-87
2023/01/29 00:20:53;;;;;;;46.08;19.88;;;;;;;1.06;100.00;101247.28;4936579;29;20047;-85
2023/01/29 00:23:19;;;;;;;41.00;20.52;;;;;;;0.98;100.00;101255.53;4937815;29;20032;-87
2023/01/29 00:25:45;;;;;;;44.05;19.77;;;;;;;0.97;100.00;101252.97;4937626;29;20024;-86
2023/01/29 00:28:11;;;;;;;39.08;19.73;;;;;;;0.95;100.00;101250.47;4937938;29;20043;-86
2023/01/29 00:30:37;;;;;;;38.47;17.85;;;;;;;1.34;100.00;101257.03;4952229;29;20027;-88
2023/01/29 00:33:04;;;;;;;43.17;19.95;;;;;;;1.51;100.00;101254.31;4937437;29;20032;-86
2023/01/29 00:35:30;;;;;;;38.75;18.58;;;;;;;1.60;100.00;101252.94;4937292;29;20067;-85
2023/01/29 00:37:57;;;;;;;43.70;20.38;;;;;;;1.46;100.00;101251.94;4937107;29;20122;-85
2023/01/29 00:40:23;;;;;;;40.88;19.17;;;;;;;1.44;100.00;101252.97;4935923;29;20047;-86
2023/01/29 00:45:37;;;;;;;43.85;19.00;;;;;;;1.24;100.00;101251.47;4937044;29;20090;-85
2023/01/29 00:48:05;;;;;;;41.95;20.38;;;;;;;1.48;100.00;101242.28;4935805;29;20035;-85
2023/01/29 00:50:31;;;;;;;41.30;18.83;;;;;;;1.73;100.00;101248.69;4935712;29;20040;-85
2023/01/29 00:52:57;;;;;;;43.28;19.05;;;;;;;1.59;100.00;101251.28;4937086;29;20027;-87
2023/01/29 00:55:22;;;;;;;41.35;19.92;;;;;;;1.44;100.00;101251.22;4937250;29;20043;-85
2023/01/29 00:57:49;;;;;;;42.10;20.38;;;;;;;1.33;100.00;101250.94;4935839;29;20043;-84
2023/01/29 01:00:17;;;;;;;42.30;20.17;;;;;;;1.39;100.00;101250.59;4936734;29;20079;-85
2023/01/29 01:05:31;;;;;;;38.55;18.15;;;;;;;1.57;100.00;101264.41;4951796;29;20078;-86
2023/01/29 01:07:57;;;;;;;41.17;19.25;;;;;;;1.53;100.00;101265.50;4937034;29;20516;-83
2023/01/29 01:10:29;;;;;;;47.15;19.73;;;;;;;1.32;100.00;101253.66;4936566;29;20024;-85
2023/01/29 01:12:58;;;;;;;40.03;18.60;;;;;;;1.34;100.00;101252.66;4936759;29;20031;-86
2023/01/29 01:15:29;;;;;;;40.28;18.83;;;;;;;1.35;100.00;101256.94;4951520;29;20039;-86
2023/01/29 01:17:59;;;;;;;45.03;20.42;;;;;;;1.18;100.00;101259.66;4936762;29;20052;-86
2023/01/29 01:20:27;;;;;;;42.00;19.80;;;;;;;1.16;100.00;101260.66;4935085;29;20065;-85
2023/01/29 01:22:53;;;;;;;42.97;20.45;;;;;;;0.94;100.00;101264.44;4951317;29;20548;-86
2023/01/29 01:25:20;;;;;;;39.28;19.48;;;;;;;0.97;100.00;101266.03;4953764;29;20035;-86
2023/01/29 01:27:46;;;;;;;43.13;19.42;;;;;;;1.20;100.00;101257.78;4936898;29;20044;-87
2023/01/29 01:30:14;;;;;;;48.03;21.95;;;;;;;1.06;100.00;101257.72;4936407;29;20063;-85
2023/01/29 01:32:42;;;;;;;51.42;20.33;;;;;;;1.42;100.00;101266.13;4950514;28;20107;-84
2023/01/29 01:35:09;;;;;;;48.65;20.45;;;;;;;1.37;100.00;101257.69;4950980;29;20032;-85
2023/01/29 01:37:38;;;;;;;44.35;21.30;;;;;;;1.30;100.00;101264.19;4935729;29;20046;-84
2023/01/29 01:40:17;;;;;;;42.45;20.63;;;;;;;1.21;100.00;101266.47;4967286;29;20062;-85
2023/01/29 01:42:48;;;;;;;44.30;20.55;;;;;;;1.30;100.00;101263.34;4936804;29;20397;-85
2023/01/29 01:45:25;;;;;;;47.95;21.23;;;;;;;1.32;100.00;101264.97;4936251;29;20183;-85
2023/01/29 01:48:02;;;;;;;44.53;20.33;;;;;;;1.18;100.00;101264.03;4936140;29;20390;-85
2023/01/29 01:50:33;;;;;;;44.38;21.33;;;;;;;1.51;100.00;101267.38;4934541;29;20048;-86
2023/01/29 01:53:06;;;;;;;43.97;21.73;;;;;;;1.55;100.00;101269.75;4936180;29;20036;-85
2023/01/29 01:55:34;;;;;;;52.08;22.05;;;;;;;1.73;100.00;101265.22;4936158;29;20077;-85
2023/01/29 01:58:09;;;;;;;43.33;19.80;;;;;;;1.59;100.00;101278.25;4935794;29;20031;-84
2023/01/29 02:00:35;;;;;;;46.08;20.55;;;;;;;1.66;100.00;101271.72;4934762;29;20047;-86
2023/01/29 02:11:30;;;;;;;46.65;21.38;;;;;;;1.67;100.00;101283.84;4934391;29;20044;-86
2023/01/29 02:13:56;;;;;;;45.70;21.00;;;;;;;1.53;100.00;101282.03;4935460;29;20031;-86
2023/01/29 02:16:24;;;;;;;41.53;19.30;;;;;;;1.55;100.00;101281.94;4935405;29;20495;-86
2023/01/29 02:18:50;;;;;;;45.65;21.02;;;;;;;1.60;100.00;101279.06;4935684;29;20127;-86
2023/01/29 02:21:50;;;;;;;39.58;20.05;;;;;;;1.79;100.00;101274.50;4934092;29;20036;-86
2023/01/29 02:24:42;;;;;;;44.05;20.20;;;;;;;1.51;100.00;101278.66;4935520;29;20091;-85
2023/01/29 02:27:14;;;;;;;45.85;19.30;;;;;;;1.44;100.00;101279.09;4950294;29;20040;-87
2023/01/29 02:30:01;;;;;;;30.93;14.97;;;;;;;1.56;100.00;101273.16;4950101;29;20043;-86
2023/01/29 02:32:39;;;;;;;37.85;19.02;;;;;;;1.63;100.00;101276.28;4935318;29;20036;-83
2023/01/29 02:35:28;;;;;;;42.33;19.77;;;;;;;1.78;100.00;101280.66;4935432;29;20365;-86
2023/01/29 02:38:06;;;;;;;40.13;20.15;;;;;;;1.64;100.00;101276.19;4935436;29;20036;-86
2023/01/29 02:40:56;;;;;;;41.42;20.83;;;;;;;1.31;100.00;101278.09;4934149;29;20032;-86
2023/01/29 02:43:46;;;;;;;41.08;20.27;;;;;;;1.33;100.00;101271.84;4934496;29;20406;-86
2023/01/29 02:46:24;;;;;;;45.50;20.10;;;;;;;1.40;100.00;101283.63;4954014;29;20035;-86
2023/01/29 02:49:09;;;;;;;42.85;21.23;;;;;;;1.17;100.00;101286.66;4939035;29;20393;-86
2023/01/29 02:51:54;;;;;;;46.25;20.52;;;;;;;1.42;100.00;101297.47;4921822;29;20071;-86
2023/01/29 02:54:26;;;;;;;45.88;20.15;;;;;;;1.49;100.00;101293.56;4937923;29;20040;-85
2023/01/29 02:56:59;;;;;;;45.13;21.10;;;;;;;1.59;100.00;101300.91;4937254;29;20036;-85
2023/01/29 02:59:44;;;;;;;44.83;19.88;;;;;;;1.38;100.00;101306.41;4938254;29;20071;-85
2023/01/29 03:02:22;;;;;;;43.50;20.95;;;;;;;1.14;100.00;101304.25;4937435;29;20040;-87
2023/01/29 03:04:54;;;;;;;42.47;20.75;;;;;;;1.28;100.00;101310.44;4937547;29;20078;-86
2023/01/29 03:07:41;;;;;;;48.30;21.35;;;;;;;1.00;100.00;101310.22;4953517;29;20038;-86
2023/01/29 03:10:45;;;;;;;48.60;21.00;;;;;;;1.20;100.00;101302.16;4953436;29;20409;-87
2023/01/29 03:13:21;;;;;;;48.45;22.20;;;;;;;1.45;100.00;101307.75;4924791;29;20493;-85
2023/01/29 03:16:00;;;;;;;46.72;21.08;;;;;;;1.62;100.00;101313.81;4922449;29;20036;-86
2023/01/29 03:18:49;;;;;;;49.70;22.83;;;;;;;1.53;100.00;101312.53;4937160;29;20503;-85
2023/01/29 03:21:58;;;;;;;49.25;22.50;;;;;;;1.44;100.00;101313.03;4937465;29;20031;-84
2023/01/29 03:33:25;;;;;;;43.78;21.35;;;;;;;0.89;100.00;101312.59;4938248;29;20439;-85
2023/01/29 03:36:01;;;;;;;46.22;22.02;;;;;;;0.87;100.00;101303.97;4938608;29;20047;-86
2023/01/29 03:38:28;;;;;;;46.35;20.83;;;;;;;0.67;100.00;101312.84;4952772;29;20075;-84
2023/01/29 03:41:09;;;;;;;42.30;19.75;;;;;;;0.41;100.00;101311.59;4921320;29;20118;-85
2023/01/29 03:44:00;;;;;;;41.35;21.08;;;;;;;0.62;100.00;101306.19;4936929;29;20118;-84
2023/01/29 03:46:35;;;;;;;45.83;20.20;;;;;;;0.58;100.00;101296.84;4937478;29;20035;-84
2023/01/29 03:49:11;;;;;;;44.25;21.20;;;;;;;0.80;100.00;101302.59;4940147;29;20362;-85
2023/01/29 03:52:04;;;;;;;38.88;19.40;;;;;;;0.81;100.00;101305.16;4956653;29;20031;-83
2023/01/29 03:55:05;;;;;;;44.08;19.80;;;;;;;0.84;100.00;101311.97;4939201;29;20051;-84
2023/01/29 03:57:38;;;;;;;47.30;20.35;;;;;;;0.82;100.00;101306.00;4956030;29;20130;-86
2023/01/29 04:00:33;;;;;;;40.05;19.90;;;;;;;0.62;100.00;101314.03;4937343;29;20035;-85
2023/01/29 04:03:23;;;;;;;45.08;21.25;;;;;;;0.87;100.00;101317.03;4918639;29;20454;-85
2023/01/29 04:06:08;;;;;;;44.15;20.90;;;;;;;0.88;100.00;101300.44;4937191;29;20051;-85
2023/01/29 04:08:54;;;;;;;50.08;21.77;;;;;;;1.06;100.00;101304.69;4936525;29;20039;-85
2023/01/29 04:11:22;;;;;;;49.08;22.27;;;;;;;1.09;100.00;101311.50;4936632;29;20044;-85
2023/01/29 04:13:48;;;;;;;54.13;21.92;;;;;;;1.09;100.00;101312.38;4936474;29;20043;-84
2023/01/29 04:16:21;;;;;;;49.35;21.67;;;;;;;1.26;100.00;101311.44;4952501;29;20047;-85
2023/01/29 04:19:10;;;;;;;49.72;21.27;;;;;;;1.29;100.00;101313.91;4937309;29;20111;-85
2023/01/29 04:21:40;;;;;;;45.50;21.15;;;;;;;1.32;100.00;101305.88;4952441;29;20105;-84
2023/01/29 04:24:07;;;;;;;43.80;20.40;;;;;;;1.30;100.00;101312.94;4935753;29;20115;-86
2023/01/29 04:26:57;;;;;;;44.40;20.38;;;;;;;1.27;100.00;101313.13;4936569;29;20036;-84
2023/01/29 04:29:49;;;;;;;43.65;20.48;;;;;;;0.84;100.00;101309.34;4935830;29;20055;-85
2023/01/29 04:32:30;;;;;;;43.60;19.77;;;;;;;0.68;100.00;101308.47;4935917;29;20118;-85
2023/01/29 04:35:06;;;;;;;43.60;20.67;;;;;;;0.32;100.00;101312.06;4936240;29;20035;-85
2023/01/29 04:37:41;;;;;;;47.72;21.65;;;;;;;0.18;100.00;101318.88;4936245;29;20043;-86
2023/01/29 04:40:25;;;;;;;48.08;21.58;;;;;;;0.12;100.00;101325.25;4936892;29;20051;-86
2023/01/29 04:43:01;;;;;;;50.38;21.50;;;;;;;0.19;100.00;101325.78;4936826;29;20067;-86
2023/01/29 04:45:32;;;;;;;46.40;20.77;;;;;;;0.04;100.00;101322.16;4936938;29;20036;-85
2023/01/29 04:48:52;;;;;;;42.57;20.57;;;;;;;0.14;100.00;101330.38;4951171;29;20044;-85
2023/01/29 04:51:29;;;;;;;45.70;20.42;;;;;;;0.30;100.00;101333.94;4915781;29;20044;-87
2023/01/29 04:54:16;;;;;;;52.30;22.48;;;;;;;-0.08;100.00;101339.25;4934224;29;20087;-86
2023/01/29 04:56:58;;;;;;;54.97;22.58;;;;;;;-0.29;100.00;101334.22;4951611;29;20051;-86
2023/01/29 04:59:51;;;;;;;53.85;22.83;;;;;;;-0.01;100.00;101329.38;4936601;29;20054;-83
2023/01/29 05:02:18;;;;;;;46.58;22.48;;;;;;;0.22;100.00;101331.69;4936531;29;20048;-85
2023/01/29 05:04:45;;;;;;;49.15;23.05;;;;;;;0.32;100.00;101332.94;4936583;29;20051;-86
2023/01/29 05:07:13;;;;;;;52.13;23.50;;;;;;;0.22;100.00;101325.63;4936424;29;20385;-85
2023/01/29 05:09:44;;;;;;;51.83;23.27;;;;;;;0.39;100.00;101329.09;4936518;29;20439;-84
2023/01/29 05:12:13;;;;;;;49.88;23.08;;;;;;;0.54;100.00;101322.22;4936478;29;20031;-86
2023/01/29 05:14:41;;;;;;;47.83;22.50;;;;;;;0.29;100.00;101322.66;4936677;29;20128;-85
2023/01/29 05:17:18;;;;;;;52.50;24.45;;;;;;;0.36;100.00;101329.25;4937215;29;20040;-85
2023/01/29 05:19:45;;;;;;;52.97;23.65;;;;;;;0.26;100.00;101327.19;4936933;29;20039;-85
2023/01/29 05:22:14;;;;;;;53.95;24.55;;;;;;;0.21;100.00;101330.00;4936784;29;20063;-85
2023/01/29 05:24:40;;;;;;;48.25;22.38;;;;;;;0.33;100.00;101333.78;4936613;29;20059;-83
2023/01/29 05:29:54;;;;;;;51.53;24.48;;;;;;;0.53;100.00;101342.25;4936804;29;20051;-85
2023/01/29 05:32:19;;;;;;;53.97;24.73;;;;;;;0.43;100.00;101341.03;4937391;29;20040;-85
2023/01/29 05:34:45;;;;;;;51.22;22.90;;;;;;;0.40;100.00;101343.78;4936016;29;20067;-85
2023/01/29 05:37:11;;;;;;;50.35;22.10;;;;;;;0.72;100.00;101338.72;4936810;29;20047;-86
2023/01/29 05:39:36;;;;;;;53.92;23.88;;;;;;;0.93;100.00;101350.63;4936451;29;20032;-85
2023/01/29 05:42:03;;;;;;;51.67;23.88;;;;;;;1.08;100.00;101344.59;4934867;29;20044;-86
2023/01/29 05:44:29;;;;;;;52.47;25.38;;;;;;;0.94;100.00;101347.09;4934942;29;20385;-84
2023/01/29 05:46:54;;;;;;;55.97;24.80;;;;;;;0.75;100.00;101349.81;4935907;29;20039;-83
2023/01/29 05:49:21;;;;;;;55.08;24.98;;;;;;;0.51;100.00;101351.94;4935790;29;20095;-84
2023/01/29 05:51:46;;;;;;;56.70;24.02;;;;;;;0.50;100.00;101352.00;4951004;29;20063;-84
2023/01/29 05:54:12;;;;;;;49.75;23.83;;;;;;;0.52;100.00;101358.00;4934716;29;20123;-86
2023/01/29 05:56:39;;;;;;;49.45;23.48;;;;;;;0.52;100.00;101360.59;4935967;29;20488;-84
2023/01/29 05:59:05;;;;;;;53.33;24.17;;;;;;;0.63;100.00;101363.47;4935679;29;20560;-86
2023/01/29 06:01:30;;;;;;;51.25;23.90;;;;;;;0.68;100.00;101358.03;4935435;29;20078;-84
2023/01/29 06:03:56;;;;;;;54.00;24.38;;;;;;;0.69;100.00;101367.56;4935990;29;20118;-82
2023/01/29 06:06:21;;;;;;;53.58;24.77;;;;;;;0.59;100.00;101361.13;4935729;29;20374;-83
2023/01/29 06:08:47;;;;;;;51.53;23.00;;;;;;;0.78;100.00;101367.09;4935512;29;20040;-82
2023/01/29 06:11:13;;;;;;;50.42;23.42;;;;;;;0.63;100.00;101373.91;4935218;29;20447;-84
2023/01/29 06:13:39;;;;;;;55.08;24.17;;;;;;;0.27;100.00;101366.19;4935660;29;20037;-83
2023/01/29 06:16:12;;;;;;;56.08;25.58;;;;;;;0.24;100.00;101366.34;4936073;29;20445;-83
2023/01/29 06:18:38;;;;;;;48.70;24.70;;;;;;;0.39;100.00;101369.97;4935753;29;20088;-86
2023/01/29 06:21:06;;;;;;;62.08;25.58;;;;;;;0.29;100.00;101377.41;4936543;29;20032;-85
2023/01/29 06:23:31;;;;;;;53.92;25.45;;;;;;;0.29;100.00;101373.94;4935418;29;20042;-83
2023/01/29 06:26:06;;;;;;;50.90;24.13;;;;;;;0.55;100.00;101376.09;4950005;29;20119;-86
2023/01/29 06:28:31;;;;;;;61.42;24.30;;;;;;;0.55;100.00;101383.06;4935313;29;20588;-82
2023/01/29 06:30:58;;;;;;;52.85;22.35;;;;;;;0.41;100.00;101388.97;4935645;29;20024;-84
2023/01/29 06:33:24;;;;;;;60.17;24.60;;;;;;;0.40;100.00;101382.91;4934509;29;20503;-85
2023/01/29 06:35:55;;;;;;;57.70;23.38;;;;;;;0.59;100.00;101382.00;4934785;29;20481;-84
2023/01/29 06:38:20;;;;;;;57.80;24.40;;;;;;;0.72;100.00;101383.91;4934573;29;20035;-85
2023/01/29 06:40:46;;;;;;;61.17;25.75;;;;;;;0.74;100.00;101375.97;4949866;29;20043;-86
2023/01/29 06:43:11;;;;;;;54.65;23.48;;;;;;;0.73;100.00;101379.53;4934531;29;20164;-84
2023/01/29 06:45:37;;;;;;;56.78;23.88;;;;;;;0.64;100.00;101390.41;4933193;29;20067;-84
2023/01/29 06:48:03;;;;;;;54.63;24.00;;;;;;;0.85;100.00;101394.56;4934791;29;20032;-88
2023/01/29 06:50:28;;;;;;;55.15;23.92;;;;;;;1.02;100.00;101394.53;4934023;29;20063;-83
2023/01/29 06:52:53;;;;;;;70.80;25.95;;;;;;;1.08;100.00;101386.38;4933980;29;20054;-85
2023/01/29 06:55:19;;;;;;;59.95;26.30;;;;;;;1.15;100.00;101386.88;4935166;29;20040;-83
2023/01/29 06:57:44;;;;;;;62.53;25.00;;;;;;;0.83;100.00;101392.00;4934972;29;20035;-84
2023/01/29 07:00:10;;;;;;;69.95;25.48;;;;;;;0.65;100.00;101395.56;4935246;29;20101;-86
2023/01/29 07:02:36;;;;;;;50.90;23.25;;;;;;;0.79;100.00;101398.31;4938557;29;20035;-85
2023/01/29 07:05:02;;;;;;;58.60;25.63;;;;;;;0.87;100.00;101408.34;4935072;29;20378;-85
2023/01/29 07:07:27;;;;;;;53.05;24.80;;;;;;;1.62;100.00;101402.63;4936831;29;20051;-83
2023/01/29 07:09:52;;;;;;;50.92;23.98;;;;;;;1.80;100.00;101404.22;4935544;29;20050;-86
2023/01/29 07:12:18;;;;;;;48.60;24.05;;;;;;;1.63;100.00;101399.06;4935259;29;20036;-85
2023/01/29 07:14:43;;;;;;;52.65;24.17;;;;;;;1.98;100.00;101400.59;4935045;29;20103;-86
2023/01/29 07:17:09;;;;;;;56.45;25.40;;;;;;;2.74;100.00;101411.88;4935628;29;20090;-85
2023/01/29 07:19:34;;;;;;;53.78;25.40;;;;;;;3.15;100.00;101418.09;4935075;29;20039;-84
2023/01/29 07:22:03;;;;;;;51.17;24.98;;;;;;;2.89;100.00;101419.66;4949746;29;20098;-85
2023/01/29 07:24:28;;;;;;;47.40;23.38;;;;;;;3.60;100.00;101417.91;4935226;29;20040;-87
2023/01/29 07:26:54;;;;;;;52.55;25.50;;;;;;;3.34;100.00;101426.53;4948074;29;20134;-85
2023/01/29 07:29:19;;;;;;;54.75;25.02;;;;;;;3.20;100.00;101426.53;4923033;29;20044;-89
2023/01/29 07:31:45;;;;;;;47.28;23.85;;;;;;;3.15;100.00;101441.66;4933292;29;20136;-85
2023/01/29 07:34:10;;;;;;;52.30;25.92;;;;;;;3.80;100.00;101442.00;4934522;29;20063;-89
2023/01/29 07:36:36;;;;;;;48.28;24.63;;;;;;;4.57;99.34;101448.31;4945851;29;20442;-88
2023/01/29 07:39:02;;;;;;;50.28;23.67;;;;;;;5.20;92.22;101452.81;4931695;29;20040;-87
2023/01/29 07:41:27;;;;;;;49.20;23.95;;;;;;;5.36;87.49;101461.34;4934905;29;20371;-86
2023/01/29 07:43:53;;;;;;;45.53;21.73;;;;;;;5.42;90.08;101467.94;4938838;29;20041;-81
2023/01/29 07:46:19;;;;;;;44.80;22.17;;;;;;;6.38;83.99;101473.31;4936850;29;20047;-86
2023/01/29 07:48:44;;;;;;;44.13;22.00;;;;;;;6.91;78.81;101473.78;4938380;29;20050;-83
2023/01/29 07:51:13;;;;;;;46.33;22.75;;;;;;;6.21;78.46;101471.91;4943395;29;20054;-87
2023/01/29 07:53:39;;;;;;;41.00;21.45;;;;;;;5.35;84.57;101490.34;4939176;29;20036;-81
2023/01/29 07:56:04;;;;;;;42.75;22.20;;;;;;;5.99;80.72;101484.94;4938163;29;20042;-85
2023/01/29 07:58:31;;;;;;;45.38;21.77;;;;;;;6.30;79.19;101488.84;4937953;29;20044;-83
2023/01/29 08:00:56;;;;;;;43.35;20.85;;;;;;;6.82;75.79;101490.28;4937607;29;20031;-83
2023/01/29 08:03:22;;;;;;;43.85;22.25;;;;;;;6.11;79.14;101488.47;4937662;29;20123;-83
2023/01/29 08:05:47;;;;;;;44.30;22.63;;;;;;;6.54;79.76;101500.22;4938379;29;20059;-87
2023/01/29 08:08:13;;;;;;;45.25;22.38;;;;;;;6.84;76.81;101507.66;4939200;29;20493;-85
2023/01/29 08:10:40;;;;;;;48.25;23.58;;;;;;;6.89;76.24;101508.16;4942170;29;20047;-82
2023/01/29 08:13:06;;;;;;;46.28;23.95;;;;;;;6.77;75.08;101511.69;4940121;29;20035;-83
2023/01/29 08:15:32;;;;;;;47.13;24.92;;;;;;;6.69;78.17;101509.63;4945616;29;20079;-83
2023/01/29 08:18:00;;;;;;;47.78;25.15;;;;;;;7.15;72.69;101506.19;4938033;29;20481;-83
2023/01/29 08:20:26;;;;;;;44.17;24.08;;;;;;;7.03;73.46;101512.38;4937097;29;20036;-82
2023/01/29 08:22:59;;;;;;;58.20;29.02;;;;;;;6.00;79.52;101515.56;4939813;29;20043;-86
2023/01/29 08:25:24;;;;;;;54.17;26.75;;;;;;;5.80;83.74;101521.34;4938554;29;20118;-84
2023/01/29 08:27:50;;;;;;;56.30;27.77;;;;;;;5.41;88.12;101530.19;4938485;29;20574;-86
2023/01/29 08:30:16;;;;;;;63.97;27.25;;;;;;;4.90;91.69;101531.06;4938202;29;20059;-83
2023/01/29 08:32:41;;;;;;;49.75;26.40;;;;;;;5.06;91.59;101537.00;4939599;29;20031;-88
2023/01/29 08:35:07;;;;;;;46.38;24.92;;;;;;;5.29;91.58;101538.91;4939183;29;20044;-85
2023/01/29 08:37:34;;;;;;;52.08;24.80;;;;;;;5.33;90.91;101537.78;4941150;29;20087;-87
2023/01/29 08:40:03;;;;;;;44.35;23.90;;;;;;;5.39;93.84;101539.97;4940051;29;20048;-88
2023/01/29 08:42:29;;;;;;;48.90;23.52;;;;;;;5.18;93.43;101541.41;4941747;29;20450;-87
2023/01/29 08:44:54;;;;;;;54.17;25.50;;;;;;;4.89;97.77;101534.63;4942117;29;20028;-87
2023/01/29 08:47:19;;;;;;;53.45;25.88;;;;;;;4.83;100.00;101540.28;4958548;29;20024;-89
2023/01/29 08:49:46;;;;;;;56.35;26.50;;;;;;;5.03;100.00;101538.03;4961410;29;20095;-86
2023/01/29 08:52:11;;;;;;;52.38;25.60;;;;;;;4.97;100.00;101537.59;4944300;29;20047;-86
2023/01/29 08:54:37;;;;;;;50.60;26.13;;;;;;;4.60;100.00;101537.38;4938228;29;20083;-85
2023/01/29 08:57:02;;;;;;;56.78;27.30;;;;;;;4.41;100.00;101542.09;4939939;29;20111;-89
2023/01/29 08:59:28;;;;;;;51.20;25.60;;;;;;;4.13;100.00;101540.41;4937581;29;20043;-89
2023/01/29 09:01:53;;;;;;;53.33;25.92;;;;;;;3.96;100.00;101547.63;4945392;29;20544;-89
2023/01/29 09:04:19;;;;;;;52.88;24.98;;;;;;;3.89;100.00;101544.53;4945866;29;20046;-89
2023/01/29 09:06:44;;;;;;;52.35;24.05;;;;;;;4.28;100.00;101546.44;4945705;29;20099;-90
2023/01/29 09:09:10;;;;;;;44.72;23.02;;;;;;;4.51;100.00;101548.47;4941115;29;20043;-86
2023/01/29 09:11:37;;;;;;;54.28;25.25;;;;;;;4.49;100.00;101550.34;4942627;29;20071;-87
2023/01/29 09:14:21;;;;;;;48.03;23.75;;;;;;;4.38;100.00;101550.19;4949514;29;20035;-91
2023/01/29 09:16:48;;;;;;;53.30;24.52;;;;;;;4.18;100.00;101554.06;4949351;29;20039;-88
2023/01/29 09:19:19;;;;;;;53.63;24.77;;;;;;;4.23;100.00;101551.16;4964925;29;20040;-88
2023/01/29 09:21:44;;;;;;;57.85;26.88;;;;;;;4.24;100.00;101547.59;4946752;29;20058;-88
2023/01/29 09:24:10;;;;;;;51.15;25.45;;;;;;;4.24;100.00;101547.59;4946218;29;20031;-91
2023/01/29 09:26:44;;;;;;;57.72;25.80;;;;;;;4.31;100.00;101558.56;5265139;23;20059;-91
2023/01/29 09:29:10;;;;;;;46.30;23.58;;;;;;;4.68;100.00;101545.59;4947726;29;20075;-91
2023/01/29 09:31:37;;;;;;;51.22;25.00;;;;;;;4.51;100.00;101545.84;4949510;29;20043;-90
2023/01/29 09:34:03;;;;;;;47.00;23.58;;;;;;;4.86;100.00;101545.34;4997404;23;20493;-90
2023/01/29 09:36:28;;;;;;;55.28;24.48;;;;;;;4.98;100.00;101548.00;4932497;29;20036;-91
2023/01/29 09:38:54;;;;;;;45.97;23.33;;;;;;;4.99;100.00;101551.47;4949895;29;20039;-89
2023/01/29 09:41:46;;;;;;;50.83;24.58;;;;;;;4.94;99.76;101554.38;4918073;29;20048;-91
2023/01/29 09:44:36;;;;;;;35.72;17.27;;;;;;;4.89;99.14;101556.50;4951044;29;20051;-92
2023/01/29 09:47:06;;;;;;;48.25;22.58;;;;;;;4.88;99.86;101565.31;4947147;29;20047;-93
2023/01/29 09:49:38;;;;;;;47.10;24.35;;;;;;;5.13;99.59;101554.03;4931716;29;20055;-90
2023/01/29 09:52:16;;;;;;;49.42;23.77;;;;;;;5.35;98.30;101564.78;4930715;29;20114;-90
2023/01/29 09:54:56;;;;;;;54.55;26.75;;;;;;;5.38;95.81;101559.31;4928208;29;20148;-90
2023/01/29 09:57:28;;;;;;;51.45;25.45;;;;;;;5.29;93.61;101557.31;4942699;29;20171;-91
2023/01/29 09:59:56;;;;;;;44.55;22.25;;;;;;;5.26;95.40;101564.56;4943602;29;20040;-91
2023/01/29 10:02:37;;;;;;;40.05;20.00;;;;;;;5.22;94.12;101558.66;4943691;29;20087;-91
2023/01/29 10:05:38;;;;;;;47.90;21.63;;;;;;;5.15;94.87;101554.75;4943395;29;20067;-92
2023/01/29 10:08:17;;;;;;;42.10;21.92;;;;;;;5.16;94.50;101554.69;4943846;29;20036;-91
2023/01/29 10:10:57;;;;;;;42.58;20.45;;;;;;;5.28;93.08;101562.66;4944642;29;20039;-91
2023/01/29 10:13:52;;;;;;;46.63;20.23;;;;;;;5.33;93.90;101556.19;4946122;29;20050;-92
2023/01/29 10:16:39;;;;;;;45.28;21.75;;;;;;;5.49;94.78;101555.97;4912109;29;20122;-92
2023/01/29 10:19:13;;;;;;;44.38;21.25;;;;;;;5.43;93.50;101548.50;4944348;29;20040;-91
2023/01/29 10:22:18;;;;;;;46.40;22.83;;;;;;;5.34;95.96;101547.31;4930944;29;20044;-93
2023/01/29 10:25:03;;;;;;;43.35;21.65;;;;;;;5.22;98.67;101545.53;4880408;29;20055;-90
2023/01/29 10:27:37;;;;;;;47.33;23.33;;;;;;;5.00;100.00;101543.50;4946781;29;20064;-91
2023/01/29 10:30:08;;;;;;;;;;;;;;;5.15;100.00;101552.13;4942255;29;20147;-89
2023/01/29 10:32:35;;;;;;;46.65;21.90;;;;;;;5.07;98.23;101550.00;4925808;29;20029;-91
2023/01/29 10:35:22;;;;;;;39.17;20.08;;;;;;;5.25;99.69;101545.31;4926795;29;20047;-89
2023/01/29 10:38:25;;;;;;;53.13;21.10;;;;;;;5.18;97.64;101546.66;4950584;28;20040;-87
2023/01/29 10:40:57;;;;;;;42.65;21.60;;;;;;;5.16;97.62;101541.53;4952791;29;20040;-88
2023/01/29 10:43:54;;;;;;;41.78;20.20;;;;;;;5.50;99.76;101542.69;4953185;28;20052;-90
2023/01/29 10:46:41;;;;;;;38.47;19.98;;;;;;;5.36;98.63;101537.56;4927077;28;20059;-88
2023/01/29 10:49:14;;;;;;;52.80;21.98;;;;;;;5.44;98.46;101532.63;4959136;28;20036;-88
2023/01/29 10:51:59;;;;;;;42.33;21.65;;;;;;;5.51;98.02;101525.16;4956762;28;20040;-90
2023/01/29 10:55:02;;;;;;;43.83;21.42;;;;;;;5.44;98.56;101516.84;4924815;28;20032;-89
2023/01/29 10:57:56;;;;;;;46.47;22.98;;;;;;;5.45;100.00;101517.69;4886671;28;20031;-88
2023/01/29 11:00:35;;;;;;;48.67;21.80;;;;;;;5.59;100.00;101510.53;4957869;28;20056;-88
2023/01/29 11:03:14;;;;;;;46.75;22.65;;;;;;;5.74;100.00;101498.94;4950808;29;20043;-88
2023/01/29 11:06:02;;;;;;;60.25;31.42;;;;;;;5.85;100.00;101495.56;4945660;29;20121;-88
2023/01/29 11:08:45;;;;;;;47.67;22.85;;;;;;;5.85;99.84;101494.72;4893492;29;20501;-89
2023/01/29 11:11:12;;;;;;;51.38;26.42;;;;;;;5.94;100.00;101484.41;4944339;29;20044;-88
2023/01/29 11:13:46;;;;;;;72.45;36.67;;;;;;;6.28;100.00;101488.13;4945176;29;20035;-87
2023/01/29 11:16:12;;;;;;;47.90;23.70;;;;;;;6.02;100.00;101476.00;4942804;29;20047;-88
2023/01/29 11:18:51;;;;;;;48.83;22.15;;;;;;;6.08;100.00;101475.53;4943009;29;20118;-89
2023/01/29 11:21:16;;;;;;;49.17;23.88;;;;;;;5.86;100.00;101470.13;4940170;29;20377;-88
2023/01/29 11:23:45;;;;;;;45.58;22.73;;;;;;;6.05;100.00;101465.25;4941730;29;20028;-88
2023/01/29 11:26:16;;;;;;;41.42;19.17;;;;;;;6.17;100.00;101464.34;4909699;29;20516;-87
2023/01/29 11:28:44;;;;;;;42.05;20.13;;;;;;;6.33;100.00;101462.28;4940364;29;20035;-86
2023/01/29 11:31:17;;;;;;;57.95;22.60;;;;;;;6.36;100.00;101451.56;4941484;29;20058;-86
2023/01/29 11:33:44;;;;;;;47.58;21.25;;;;;;;6.52;99.98;101449.47;4944391;29;20039;-88
2023/01/29 11:36:33;;;;;;;50.20;21.27;;;;;;;6.50;99.34;101447.88;4926924;29;20066;-86
2023/01/29 11:39:16;;;;;;;36.75;19.73;;;;;;;6.65;97.13;101434.44;5079333;23;20051;-84
2023/01/29 11:41:52;;;;;;;38.17;19.13;;;;;;;6.59;96.74;101434.91;4937515;29;20067;-87
2023/01/29 11:44:20;;;;;;;40.03;18.10;;;;;;;6.17;99.48;101427.50;4945605;28;20112;-88
2023/01/29 11:46:46;;;;;;;43.58;19.00;;;;;;;5.90;100.00;101419.00;4945908;28;20024;-88
2023/01/29 11:49:30;;;;;;;41.55;20.50;;;;;;;5.98;100.00;101420.09;4939025;29;20050;-84
2023/01/29 11:51:57;;;;;;;36.63;19.45;;;;;;;6.05;100.00;101416.09;4950219;29;20036;-85
2023/01/29 11:54:31;;;;;;;45.45;20.95;;;;;;;5.93;100.00;101403.00;4933564;29;20110;-87
2023/01/29 11:56:59;;;;;;;38.38;18.90;;;;;;;5.98;100.00;101406.97;4937190;29;20042;-91
2023/01/29 11:59:38;;;;;;;36.78;17.75;;;;;;;6.03;100.00;101404.81;4950387;29;20548;-84
2023/01/29 12:02:37;;;;;;;38.25;17.80;;;;;;;6.11;100.00;101386.69;4949910;29;20044;-84